sensor_id;sensor_type;location;lat;lon;timestamp;temperature;humidity
42949;DHT22;28587;46.794;23.594;2022-09-02T00:01:40;27.80;52.50
42949;DHT22;28587;46.794;23.594;2022-09-02T00:06:43;27.80;52.40
42949;DHT22;28587;46.794;23.594;2022-09-02T00:11:46;27.70;52.30
42949;DHT22;28587;46.794;23.594;2022-09-02T00:16:47;27.70;52.50
42949;DHT22;28587;46.794;23.594;2022-09-02T00:21:53;27.80;52.50
42949;DHT22;28587;46.794;23.594;2022-09-02T00:26:54;27.80;52.70
42949;DHT22;28587;46.794;23.594;2022-09-02T00:31:55;27.70;52.30
42949;DHT22;28587;46.794;23.594;2022-09-02T00:36:56;27.70;52.50
42949;DHT22;28587;46.794;23.594;2022-09-02T00:41:57;27.70;52.30
42949;DHT22;28587;46.794;23.594;2022-09-02T00:46:59;27.70;52.40
42949;DHT22;28587;46.794;23.594;2022-09-02T00:52:16;27.70;52.50
42949;DHT22;28587;46.794;23.594;2022-09-02T00:57:22;27.70;52.30
42949;DHT22;28587;46.794;23.594;2022-09-02T01:02:25;27.70;52.30
42949;DHT22;28587;46.794;23.594;2022-09-02T01:07:31;27.70;52.40
42949;DHT22;28587;46.794;23.594;2022-09-02T01:12:33;27.70;52.30
42949;DHT22;28587;46.794;23.594;2022-09-02T01:17:39;27.70;52.30
42949;DHT22;28587;46.794;23.594;2022-09-02T01:22:41;27.70;52.30
42949;DHT22;28587;46.794;23.594;2022-09-02T01:27:42;27.70;52.30
42949;DHT22;28587;46.794;23.594;2022-09-02T01:32:45;27.70;52.30
42949;DHT22;28587;46.794;23.594;2022-09-02T01:37:48;27.70;52.30
42949;DHT22;28587;46.794;23.594;2022-09-02T01:42:56;27.70;52.70
42949;DHT22;28587;46.794;23.594;2022-09-02T01:47:58;27.70;52.30
42949;DHT22;28587;46.794;23.594;2022-09-02T01:52:59;27.70;52.30
42949;DHT22;28587;46.794;23.594;2022-09-02T01:58:05;27.70;52.30
42949;DHT22;28587;46.794;23.594;2022-09-02T02:03:06;27.70;52.30
42949;DHT22;28587;46.794;23.594;2022-09-02T02:08:07;27.70;52.20
42949;DHT22;28587;46.794;23.594;2022-09-02T02:13:08;27.70;52.20
42949;DHT22;28587;46.794;23.594;2022-09-02T02:18:10;27.70;52.20
42949;DHT22;28587;46.794;23.594;2022-09-02T02:23:12;27.60;52.00
42949;DHT22;28587;46.794;23.594;2022-09-02T02:28:13;27.60;52.30
42949;DHT22;28587;46.794;23.594;2022-09-02T02:33:15;27.60;52.20
42949;DHT22;28587;46.794;23.594;2022-09-02T02:38:16;27.60;52.10
42949;DHT22;28587;46.794;23.594;2022-09-02T02:43:17;27.60;52.10
42949;DHT22;28587;46.794;23.594;2022-09-02T02:48:18;27.70;52.10
42949;DHT22;28587;46.794;23.594;2022-09-02T02:53:19;27.70;52.10
42949;DHT22;28587;46.794;23.594;2022-09-02T02:58:20;27.60;52.00
42949;DHT22;28587;46.794;23.594;2022-09-02T03:03:22;27.70;52.10
42949;DHT22;28587;46.794;23.594;2022-09-02T03:08:27;27.60;52.00
42949;DHT22;28587;46.794;23.594;2022-09-02T03:13:29;27.60;52.00
42949;DHT22;28587;46.794;23.594;2022-09-02T03:18:31;27.60;51.90
42949;DHT22;28587;46.794;23.594;2022-09-02T03:23:33;27.60;51.90
42949;DHT22;28587;46.794;23.594;2022-09-02T03:28:34;27.70;52.00
42949;DHT22;28587;46.794;23.594;2022-09-02T03:33:37;27.60;51.90
42949;DHT22;28587;46.794;23.594;2022-09-02T03:38:39;27.60;51.80
42949;DHT22;28587;46.794;23.594;2022-09-02T03:43:40;27.60;52.00
42949;DHT22;28587;46.794;23.594;2022-09-02T03:48:42;27.60;51.80
42949;DHT22;28587;46.794;23.594;2022-09-02T03:53:46;27.60;51.80
42949;DHT22;28587;46.794;23.594;2022-09-02T03:58:50;27.60;51.80
42949;DHT22;28587;46.794;23.594;2022-09-02T04:03:58;27.60;51.70
42949;DHT22;28587;46.794;23.594;2022-09-02T04:08:59;27.60;51.70
42949;DHT22;28587;46.794;23.594;2022-09-02T04:14:00;27.60;51.70
42949;DHT22;28587;46.794;23.594;2022-09-02T04:19:03;27.60;51.60
42949;DHT22;28587;46.794;23.594;2022-09-02T04:24:07;27.60;51.50
42949;DHT22;28587;46.794;23.594;2022-09-02T04:29:13;27.60;51.80
42949;DHT22;28587;46.794;23.594;2022-09-02T04:34:16;27.60;51.70
42949;DHT22;28587;46.794;23.594;2022-09-02T04:39:17;27.60;51.70
42949;DHT22;28587;46.794;23.594;2022-09-02T04:44:19;27.60;51.70
42949;DHT22;28587;46.794;23.594;2022-09-02T04:49:21;27.60;51.80
42949;DHT22;28587;46.794;23.594;2022-09-02T04:54:26;27.60;51.90
42949;DHT22;28587;46.794;23.594;2022-09-02T04:59:31;27.60;52.00
42949;DHT22;28587;46.794;23.594;2022-09-02T05:04:40;27.60;51.70
42949;DHT22;28587;46.794;23.594;2022-09-02T05:09:58;27.60;51.80
42949;DHT22;28587;46.794;23.594;2022-09-02T05:15:03;27.60;51.70
42949;DHT22;28587;46.794;23.594;2022-09-02T05:20:08;27.60;51.70
42949;DHT22;28587;46.794;23.594;2022-09-02T05:25:11;27.60;51.70
42949;DHT22;28587;46.794;23.594;2022-09-02T05:30:12;27.60;51.70
42949;DHT22;28587;46.794;23.594;2022-09-02T05:35:15;27.60;51.70
42949;DHT22;28587;46.794;23.594;2022-09-02T05:40:17;27.60;51.60
42949;DHT22;28587;46.794;23.594;2022-09-02T05:45:18;27.60;52.20
42949;DHT22;28587;46.794;23.594;2022-09-02T05:50:20;27.60;51.50
42949;DHT22;28587;46.794;23.594;2022-09-02T05:55:23;27.60;51.60
42949;DHT22;28587;46.794;23.594;2022-09-02T06:00:24;27.60;51.50
42949;DHT22;28587;46.794;23.594;2022-09-02T06:05:32;27.60;51.60
42949;DHT22;28587;46.794;23.594;2022-09-02T06:10:41;27.60;51.60
42949;DHT22;28587;46.794;23.594;2022-09-02T06:15:44;27.60;51.40
42949;DHT22;28587;46.794;23.594;2022-09-02T06:20:47;27.60;51.50
42949;DHT22;28587;46.794;23.594;2022-09-02T06:25:49;27.60;51.50
42949;DHT22;28587;46.794;23.594;2022-09-02T06:30:52;27.60;51.40
42949;DHT22;28587;46.794;23.594;2022-09-02T06:35:57;27.60;51.50
42949;DHT22;28587;46.794;23.594;2022-09-02T06:40:59;27.60;51.80
42949;DHT22;28587;46.794;23.594;2022-09-02T06:46:21;27.60;51.60
42949;DHT22;28587;46.794;23.594;2022-09-02T06:51:28;27.60;51.50
42949;DHT22;28587;46.794;23.594;2022-09-02T06:56:31;27.60;51.40
42949;DHT22;28587;46.794;23.594;2022-09-02T07:01:32;27.60;51.40
42949;DHT22;28587;46.794;23.594;2022-09-02T07:06:39;27.60;51.30
42949;DHT22;28587;46.794;23.594;2022-09-02T07:11:42;27.60;51.30
42949;DHT22;28587;46.794;23.594;2022-09-02T07:16:47;27.60;51.20
42949;DHT22;28587;46.794;23.594;2022-09-02T07:21:50;27.60;51.20
42949;DHT22;28587;46.794;23.594;2022-09-02T07:26:54;27.50;51.20
42949;DHT22;28587;46.794;23.594;2022-09-02T07:31:55;27.50;51.20
42949;DHT22;28587;46.794;23.594;2022-09-02T07:36:56;27.50;51.10
42949;DHT22;28587;46.794;23.594;2022-09-02T07:41:58;27.50;51.20
42949;DHT22;28587;46.794;23.594;2022-09-02T07:46:59;27.50;51.10
42949;DHT22;28587;46.794;23.594;2022-09-02T07:52:01;27.50;51.10
42949;DHT22;28587;46.794;23.594;2022-09-02T07:57:02;27.50;51.10
42949;DHT22;28587;46.794;23.594;2022-09-02T08:02:04;27.50;51.00
42949;DHT22;28587;46.794;23.594;2022-09-02T08:07:05;27.50;51.00
42949;DHT22;28587;46.794;23.594;2022-09-02T08:12:06;27.50;51.00
42949;DHT22;28587;46.794;23.594;2022-09-02T08:17:07;27.50;51.00
42949;DHT22;28587;46.794;23.594;2022-09-02T08:22:08;27.50;51.00
42949;DHT22;28587;46.794;23.594;2022-09-02T08:27:09;27.50;50.90
42949;DHT22;28587;46.794;23.594;2022-09-02T08:32:10;27.50;50.90
42949;DHT22;28587;46.794;23.594;2022-09-02T08:37:11;27.50;51.00
42949;DHT22;28587;46.794;23.594;2022-09-02T08:42:30;27.50;51.00
42949;DHT22;28587;46.794;23.594;2022-09-02T08:47:32;27.40;50.90
42949;DHT22;28587;46.794;23.594;2022-09-02T08:57:47;27.40;50.80
42949;DHT22;28587;46.794;23.594;2022-09-02T09:03:03;27.40;50.90
42949;DHT22;28587;46.794;23.594;2022-09-02T09:08:13;27.50;51.20
42949;DHT22;28587;46.794;23.594;2022-09-02T09:13:40;27.50;50.90
42949;DHT22;28587;46.794;23.594;2022-09-02T09:18:55;27.40;50.80
42949;DHT22;28587;46.794;23.594;2022-09-02T09:24:01;27.40;50.90
42949;DHT22;28587;46.794;23.594;2022-09-02T09:29:04;27.40;50.80
42949;DHT22;28587;46.794;23.594;2022-09-02T09:34:06;27.40;50.90
42949;DHT22;28587;46.794;23.594;2022-09-02T09:39:28;27.40;51.00
42949;DHT22;28587;46.794;23.594;2022-09-02T09:44:39;27.40;51.00
42949;DHT22;28587;46.794;23.594;2022-09-02T09:49:45;27.40;50.80
42949;DHT22;28587;46.794;23.594;2022-09-02T09:54:47;27.40;50.90
42949;DHT22;28587;46.794;23.594;2022-09-02T09:59:54;27.40;50.90
42949;DHT22;28587;46.794;23.594;2022-09-02T10:05:26;27.40;51.00
42949;DHT22;28587;46.794;23.594;2022-09-02T10:10:29;27.40;51.20
42949;DHT22;28587;46.794;23.594;2022-09-02T10:15:38;27.40;51.10
42949;DHT22;28587;46.794;23.594;2022-09-02T10:21:00;27.40;51.50
42949;DHT22;28587;46.794;23.594;2022-09-02T10:31:17;27.40;51.60
42949;DHT22;28587;46.794;23.594;2022-09-02T10:42:42;27.40;51.60
42949;DHT22;28587;46.794;23.594;2022-09-02T10:53:49;27.40;51.70
42949;DHT22;28587;46.794;23.594;2022-09-02T10:58:58;27.40;51.60
42949;DHT22;28587;46.794;23.594;2022-09-02T11:04:11;27.40;51.60
42949;DHT22;28587;46.794;23.594;2022-09-02T11:09:33;27.40;51.80
42949;DHT22;28587;46.794;23.594;2022-09-02T11:31:11;27.40;51.70
42949;DHT22;28587;46.794;23.594;2022-09-02T11:36:16;27.40;51.70
42949;DHT22;28587;46.794;23.594;2022-09-02T11:47:08;27.40;51.90
42949;DHT22;28587;46.794;23.594;2022-09-02T11:52:32;27.40;51.70
42949;DHT22;28587;46.794;23.594;2022-09-02T11:57:38;27.40;51.90
42949;DHT22;28587;46.794;23.594;2022-09-02T12:02:46;27.40;51.90
42949;DHT22;28587;46.794;23.594;2022-09-02T12:07:50;27.40;52.00
42949;DHT22;28587;46.794;23.594;2022-09-02T12:22:57;27.40;52.00
42949;DHT22;28587;46.794;23.594;2022-09-02T12:28:16;27.40;52.20
42949;DHT22;28587;46.794;23.594;2022-09-02T12:33:47;27.40;52.50
42949;DHT22;28587;46.794;23.594;2022-09-02T12:38:48;27.40;52.60
42949;DHT22;28587;46.794;23.594;2022-09-02T12:44:00;27.40;52.10
42949;DHT22;28587;46.794;23.594;2022-09-02T12:49:10;27.40;52.50
42949;DHT22;28587;46.794;23.594;2022-09-02T12:54:15;27.40;52.60
42949;DHT22;28587;46.794;23.594;2022-09-02T12:59:31;27.40;52.40
42949;DHT22;28587;46.794;23.594;2022-09-02T13:20:31;27.50;52.20
42949;DHT22;28587;46.794;23.594;2022-09-02T13:26:08;27.40;52.10
42949;DHT22;28587;46.794;23.594;2022-09-02T13:31:32;27.50;52.30
42949;DHT22;28587;46.794;23.594;2022-09-02T13:36:40;27.40;52.10
42949;DHT22;28587;46.794;23.594;2022-09-02T13:41:42;27.40;52.00
42949;DHT22;28587;46.794;23.594;2022-09-02T13:46:45;27.40;52.00
42949;DHT22;28587;46.794;23.594;2022-09-02T13:51:47;27.40;51.90
42949;DHT22;28587;46.794;23.594;2022-09-02T13:56:51;27.40;52.00
42949;DHT22;28587;46.794;23.594;2022-09-02T14:01:51;27.40;52.00
42949;DHT22;28587;46.794;23.594;2022-09-02T14:06:52;27.40;52.10
42949;DHT22;28587;46.794;23.594;2022-09-02T14:11:54;27.40;51.90
42949;DHT22;28587;46.794;23.594;2022-09-02T14:17:22;27.40;51.80
42949;DHT22;28587;46.794;23.594;2022-09-02T14:22:28;27.40;51.70
42949;DHT22;28587;46.794;23.594;2022-09-02T14:27:29;27.40;51.80
42949;DHT22;28587;46.794;23.594;2022-09-02T14:32:30;27.40;51.70
42949;DHT22;28587;46.794;23.594;2022-09-02T14:37:31;27.40;51.70
42949;DHT22;28587;46.794;23.594;2022-09-02T14:42:32;27.40;51.80
42949;DHT22;28587;46.794;23.594;2022-09-02T14:47:37;27.30;51.70
42949;DHT22;28587;46.794;23.594;2022-09-02T14:52:48;27.40;51.70
42949;DHT22;28587;46.794;23.594;2022-09-02T14:58:00;27.40;51.80
42949;DHT22;28587;46.794;23.594;2022-09-02T15:03:02;27.40;51.80
42949;DHT22;28587;46.794;23.594;2022-09-02T15:08:03;27.30;51.80
42949;DHT22;28587;46.794;23.594;2022-09-02T15:13:04;27.40;51.90
42949;DHT22;28587;46.794;23.594;2022-09-02T15:18:06;27.40;51.90
42949;DHT22;28587;46.794;23.594;2022-09-02T15:23:07;27.40;51.80
42949;DHT22;28587;46.794;23.594;2022-09-02T15:28:08;27.40;51.60
42949;DHT22;28587;46.794;23.594;2022-09-02T15:33:10;27.40;51.60
42949;DHT22;28587;46.794;23.594;2022-09-02T15:38:11;27.40;51.50
42949;DHT22;28587;46.794;23.594;2022-09-02T15:43:12;27.40;51.50
42949;DHT22;28587;46.794;23.594;2022-09-02T15:48:14;27.40;51.50
42949;DHT22;28587;46.794;23.594;2022-09-02T15:53:15;27.40;51.60
42949;DHT22;28587;46.794;23.594;2022-09-02T15:58:15;27.30;51.50
42949;DHT22;28587;46.794;23.594;2022-09-02T16:03:16;27.40;51.60
42949;DHT22;28587;46.794;23.594;2022-09-02T16:08:17;27.30;51.50
42949;DHT22;28587;46.794;23.594;2022-09-02T16:13:19;27.30;51.50
42949;DHT22;28587;46.794;23.594;2022-09-02T16:18:21;27.30;51.50
42949;DHT22;28587;46.794;23.594;2022-09-02T16:23:22;27.30;51.50
42949;DHT22;28587;46.794;23.594;2022-09-02T16:28:23;27.40;51.70
42949;DHT22;28587;46.794;23.594;2022-09-02T16:33:23;27.30;51.50
42949;DHT22;28587;46.794;23.594;2022-09-02T16:38:24;27.40;51.70
42949;DHT22;28587;46.794;23.594;2022-09-02T16:43:25;27.40;51.60
42949;DHT22;28587;46.794;23.594;2022-09-02T16:48:28;27.40;51.50
42949;DHT22;28587;46.794;23.594;2022-09-02T16:53:30;27.40;51.70
42949;DHT22;28587;46.794;23.594;2022-09-02T16:58:31;27.40;51.70
42949;DHT22;28587;46.794;23.594;2022-09-02T17:03:32;27.40;51.60
42949;DHT22;28587;46.794;23.594;2022-09-02T17:08:34;27.40;51.70
42949;DHT22;28587;46.794;23.594;2022-09-02T17:13:36;27.30;51.70
42949;DHT22;28587;46.794;23.594;2022-09-02T17:18:37;27.40;51.50
42949;DHT22;28587;46.794;23.594;2022-09-02T17:23:38;27.40;51.90
42949;DHT22;28587;46.794;23.594;2022-09-02T17:28:40;27.40;51.60
42949;DHT22;28587;46.794;23.594;2022-09-02T17:33:55;27.40;51.80
42949;DHT22;28587;46.794;23.594;2022-09-02T17:38:58;27.30;51.60
42949;DHT22;28587;46.794;23.594;2022-09-02T17:43:59;27.30;51.50
42949;DHT22;28587;46.794;23.594;2022-09-02T17:49:01;27.30;51.70
42949;DHT22;28587;46.794;23.594;2022-09-02T17:54:02;27.40;51.70
42949;DHT22;28587;46.794;23.594;2022-09-02T18:09:28;27.40;51.70
42949;DHT22;28587;46.794;23.594;2022-09-02T18:14:44;27.40;51.70
42949;DHT22;28587;46.794;23.594;2022-09-02T18:30:19;27.40;51.60
42949;DHT22;28587;46.794;23.594;2022-09-02T18:40:51;27.40;52.00
42949;DHT22;28587;46.794;23.594;2022-09-02T18:45:50;27.40;51.80
42949;DHT22;28587;46.794;23.594;2022-09-02T18:50:56;27.40;51.70
42949;DHT22;28587;46.794;23.594;2022-09-02T18:56:04;27.40;51.70
42949;DHT22;28587;46.794;23.594;2022-09-02T19:01:27;27.40;51.70
42949;DHT22;28587;46.794;23.594;2022-09-02T19:06:34;27.40;52.00
42949;DHT22;28587;46.794;23.594;2022-09-02T19:11:37;27.40;51.70
42949;DHT22;28587;46.794;23.594;2022-09-02T19:16:38;27.40;51.90
42949;DHT22;28587;46.794;23.594;2022-09-02T19:21:50;27.40;51.70
42949;DHT22;28587;46.794;23.594;2022-09-02T19:27:00;27.40;51.70
42949;DHT22;28587;46.794;23.594;2022-09-02T19:32:03;27.40;51.70
42949;DHT22;28587;46.794;23.594;2022-09-02T19:37:04;27.40;51.70
42949;DHT22;28587;46.794;23.594;2022-09-02T19:42:06;27.40;51.70
42949;DHT22;28587;46.794;23.594;2022-09-02T19:47:07;27.40;51.70
42949;DHT22;28587;46.794;23.594;2022-09-02T19:52:10;27.40;51.60
42949;DHT22;28587;46.794;23.594;2022-09-02T19:57:11;27.40;52.30
42949;DHT22;28587;46.794;23.594;2022-09-02T20:02:13;27.40;51.60
42949;DHT22;28587;46.794;23.594;2022-09-02T20:07:14;27.40;51.60
42949;DHT22;28587;46.794;23.594;2022-09-02T20:12:15;27.40;51.50
42949;DHT22;28587;46.794;23.594;2022-09-02T20:17:19;27.40;51.50
42949;DHT22;28587;46.794;23.594;2022-09-02T20:22:21;27.40;51.50
42949;DHT22;28587;46.794;23.594;2022-09-02T20:27:52;27.40;51.50
42949;DHT22;28587;46.794;23.594;2022-09-02T20:32:57;27.40;51.60
42949;DHT22;28587;46.794;23.594;2022-09-02T20:43:12;27.40;51.70
42949;DHT22;28587;46.794;23.594;2022-09-02T21:04:37;27.40;51.70
42949;DHT22;28587;46.794;23.594;2022-09-02T21:20:34;27.40;51.60
42949;DHT22;28587;46.794;23.594;2022-09-02T21:25:48;27.40;51.70
42949;DHT22;28587;46.794;23.594;2022-09-02T21:31:02;27.40;51.80
42949;DHT22;28587;46.794;23.594;2022-09-02T21:36:05;27.40;51.90
42949;DHT22;28587;46.794;23.594;2022-09-02T21:41:13;27.40;51.80
42949;DHT22;28587;46.794;23.594;2022-09-02T21:51:35;27.40;51.60
42949;DHT22;28587;46.794;23.594;2022-09-02T22:07:50;27.40;51.70
42949;DHT22;28587;46.794;23.594;2022-09-02T22:12:56;27.40;51.80
42949;DHT22;28587;46.794;23.594;2022-09-02T22:23:31;27.40;51.60
42949;DHT22;28587;46.794;23.594;2022-09-02T22:28:42;27.40;51.80
42949;DHT22;28587;46.794;23.594;2022-09-02T22:33:50;27.40;51.90
42949;DHT22;28587;46.794;23.594;2022-09-02T22:38:56;27.40;51.90
42949;DHT22;28587;46.794;23.594;2022-09-02T22:44:10;27.40;51.70
42949;DHT22;28587;46.794;23.594;2022-09-02T22:49:18;27.40;51.70
42949;DHT22;28587;46.794;23.594;2022-09-02T22:54:49;27.40;51.70
42949;DHT22;28587;46.794;23.594;2022-09-02T23:10:42;27.40;51.60
42949;DHT22;28587;46.794;23.594;2022-09-02T23:37:07;27.30;51.80
42949;DHT22;28587;46.794;23.594;2022-09-02T23:42:11;27.30;52.00
42949;DHT22;28587;46.794;23.594;2022-09-02T23:47:23;27.30;52.00
42949;DHT22;28587;46.794;23.594;2022-09-02T23:53:24;27.30;52.00
42949;DHT22;28587;46.794;23.594;2022-09-02T23:58:35;27.30;51.90
